sensor_id;sensor_type;location;lat;lon;timestamp;temperature;humidity
32187;DHT22;18686;53.084;8.872;2024-03-08T00:00:17;1.80;99.90
32187;DHT22;18686;53.084;8.872;2024-03-08T00:02:48;1.80;99.90
32187;DHT22;18686;53.084;8.872;2024-03-08T00:05:18;1.80;99.90
32187;DHT22;18686;53.084;8.872;2024-03-08T00:07:46;1.80;99.90
32187;DHT22;18686;53.084;8.872;2024-03-08T00:10:15;1.80;99.90
32187;DHT22;18686;53.084;8.872;2024-03-08T00:12:44;1.80;99.90
32187;DHT22;18686;53.084;8.872;2024-03-08T00:15:16;1.70;99.90
32187;DHT22;18686;53.084;8.872;2024-03-08T00:17:48;1.70;99.90
32187;DHT22;18686;53.084;8.872;2024-03-08T00:20:16;1.70;99.90
32187;DHT22;18686;53.084;8.872;2024-03-08T00:22:46;1.70;99.90
32187;DHT22;18686;53.084;8.872;2024-03-08T00:25:15;1.70;99.90
32187;DHT22;18686;53.084;8.872;2024-03-08T00:27:43;1.70;99.90
32187;DHT22;18686;53.084;8.872;2024-03-08T00:30:11;1.70;99.90
32187;DHT22;18686;53.084;8.872;2024-03-08T00:32:41;1.70;99.90
32187;DHT22;18686;53.084;8.872;2024-03-08T00:35:11;1.70;99.90
32187;DHT22;18686;53.084;8.872;2024-03-08T00:37:41;1.60;99.90
32187;DHT22;18686;53.084;8.872;2024-03-08T00:40:10;1.60;99.90
32187;DHT22;18686;53.084;8.872;2024-03-08T00:42:38;1.60;99.90
32187;DHT22;18686;53.084;8.872;2024-03-08T00:45:10;1.60;99.90
32187;DHT22;18686;53.084;8.872;2024-03-08T00:47:39;1.60;99.90
32187;DHT22;18686;53.084;8.872;2024-03-08T00:50:11;1.60;99.90
32187;DHT22;18686;53.084;8.872;2024-03-08T00:52:39;1.60;99.90
32187;DHT22;18686;53.084;8.872;2024-03-08T00:55:08;1.60;99.90
32187;DHT22;18686;53.084;8.872;2024-03-08T00:57:37;1.50;99.90
32187;DHT22;18686;53.084;8.872;2024-03-08T01:00:08;1.50;99.90
32187;DHT22;18686;53.084;8.872;2024-03-08T01:02:39;1.50;99.90
32187;DHT22;18686;53.084;8.872;2024-03-08T01:05:08;1.40;99.90
32187;DHT22;18686;53.084;8.872;2024-03-08T01:07:39;1.40;99.90
32187;DHT22;18686;53.084;8.872;2024-03-08T01:10:08;1.40;99.90
32187;DHT22;18686;53.084;8.872;2024-03-08T01:12:37;1.40;99.90
32187;DHT22;18686;53.084;8.872;2024-03-08T01:15:06;1.40;99.90
32187;DHT22;18686;53.084;8.872;2024-03-08T01:17:35;1.40;99.90
32187;DHT22;18686;53.084;8.872;2024-03-08T01:20:03;1.30;99.90
32187;DHT22;18686;53.084;8.872;2024-03-08T01:22:32;1.30;99.90
32187;DHT22;18686;53.084;8.872;2024-03-08T01:25:01;1.30;99.90
32187;DHT22;18686;53.084;8.872;2024-03-08T01:27:32;1.20;99.90
32187;DHT22;18686;53.084;8.872;2024-03-08T01:30:04;1.30;99.90
32187;DHT22;18686;53.084;8.872;2024-03-08T01:32:33;1.20;99.90
32187;DHT22;18686;53.084;8.872;2024-03-08T01:35:03;1.30;99.90
32187;DHT22;18686;53.084;8.872;2024-03-08T01:37:32;1.30;99.90
32187;DHT22;18686;53.084;8.872;2024-03-08T01:40:01;1.30;99.90
32187;DHT22;18686;53.084;8.872;2024-03-08T01:42:30;1.20;99.90
32187;DHT22;18686;53.084;8.872;2024-03-08T01:44:58;1.30;99.90
32187;DHT22;18686;53.084;8.872;2024-03-08T01:47:27;1.30;99.90
32187;DHT22;18686;53.084;8.872;2024-03-08T01:49:55;1.30;99.90
32187;DHT22;18686;53.084;8.872;2024-03-08T01:52:24;1.20;99.90
32187;DHT22;18686;53.084;8.872;2024-03-08T01:54:53;1.20;99.90
32187;DHT22;18686;53.084;8.872;2024-03-08T01:57:23;1.20;99.90
32187;DHT22;18686;53.084;8.872;2024-03-08T01:59:52;1.20;99.90
32187;DHT22;18686;53.084;8.872;2024-03-08T02:02:22;1.20;99.90
32187;DHT22;18686;53.084;8.872;2024-03-08T02:04:50;1.20;99.90
32187;DHT22;18686;53.084;8.872;2024-03-08T02:07:20;1.10;99.90
32187;DHT22;18686;53.084;8.872;2024-03-08T02:09:50;1.10;99.90
32187;DHT22;18686;53.084;8.872;2024-03-08T02:12:19;1.10;99.90
32187;DHT22;18686;53.084;8.872;2024-03-08T02:14:50;1.10;99.90
32187;DHT22;18686;53.084;8.872;2024-03-08T02:17:18;1.10;99.90
32187;DHT22;18686;53.084;8.872;2024-03-08T02:19:46;1.10;99.90
32187;DHT22;18686;53.084;8.872;2024-03-08T02:22:16;1.10;99.90
32187;DHT22;18686;53.084;8.872;2024-03-08T02:24:44;1.00;99.90
32187;DHT22;18686;53.084;8.872;2024-03-08T02:27:12;1.00;99.90
32187;DHT22;18686;53.084;8.872;2024-03-08T02:29:42;1.10;99.90
32187;DHT22;18686;53.084;8.872;2024-03-08T02:32:13;1.00;99.90
32187;DHT22;18686;53.084;8.872;2024-03-08T02:34:42;1.00;99.90
32187;DHT22;18686;53.084;8.872;2024-03-08T02:37:10;1.00;99.90
32187;DHT22;18686;53.084;8.872;2024-03-08T02:39:40;0.90;99.90
32187;DHT22;18686;53.084;8.872;2024-03-08T02:42:08;1.00;99.90
32187;DHT22;18686;53.084;8.872;2024-03-08T02:44:37;0.90;99.90
32187;DHT22;18686;53.084;8.872;2024-03-08T02:47:05;0.90;99.90
32187;DHT22;18686;53.084;8.872;2024-03-08T02:49:34;0.90;99.90
32187;DHT22;18686;53.084;8.872;2024-03-08T02:52:05;0.80;99.90
32187;DHT22;18686;53.084;8.872;2024-03-08T02:54:34;0.80;99.90
32187;DHT22;18686;53.084;8.872;2024-03-08T02:57:05;0.80;99.90
32187;DHT22;18686;53.084;8.872;2024-03-08T02:59:35;0.80;99.90
32187;DHT22;18686;53.084;8.872;2024-03-08T03:02:06;0.80;99.90
32187;DHT22;18686;53.084;8.872;2024-03-08T03:04:39;0.80;99.90
32187;DHT22;18686;53.084;8.872;2024-03-08T03:07:09;0.80;99.90
32187;DHT22;18686;53.084;8.872;2024-03-08T03:09:38;0.70;99.90
32187;DHT22;18686;53.084;8.872;2024-03-08T03:12:08;0.70;99.90
32187;DHT22;18686;53.084;8.872;2024-03-08T03:14:36;0.70;99.90
32187;DHT22;18686;53.084;8.872;2024-03-08T03:17:06;0.80;99.90
32187;DHT22;18686;53.084;8.872;2024-03-08T03:19:37;0.70;99.90
32187;DHT22;18686;53.084;8.872;2024-03-08T03:22:09;0.70;99.90
32187;DHT22;18686;53.084;8.872;2024-03-08T03:24:39;0.70;99.90
32187;DHT22;18686;53.084;8.872;2024-03-08T03:27:09;0.70;99.90
32187;DHT22;18686;53.084;8.872;2024-03-08T03:29:40;0.70;99.90
32187;DHT22;18686;53.084;8.872;2024-03-08T03:32:09;0.70;99.90
32187;DHT22;18686;53.084;8.872;2024-03-08T03:34:39;0.60;99.90
32187;DHT22;18686;53.084;8.872;2024-03-08T03:37:07;0.60;99.90
32187;DHT22;18686;53.084;8.872;2024-03-08T03:39:39;0.60;99.90
32187;DHT22;18686;53.084;8.872;2024-03-08T03:42:17;0.60;99.90
32187;DHT22;18686;53.084;8.872;2024-03-08T03:44:48;0.60;99.90
32187;DHT22;18686;53.084;8.872;2024-03-08T03:47:18;0.60;99.90
32187;DHT22;18686;53.084;8.872;2024-03-08T03:49:47;0.70;99.90
32187;DHT22;18686;53.084;8.872;2024-03-08T03:52:16;0.60;99.90
32187;DHT22;18686;53.084;8.872;2024-03-08T03:54:44;0.70;99.90
32187;DHT22;18686;53.084;8.872;2024-03-08T03:57:12;0.60;99.90
32187;DHT22;18686;53.084;8.872;2024-03-08T03:59:42;0.60;99.90
32187;DHT22;18686;53.084;8.872;2024-03-08T04:02:10;0.60;99.90
32187;DHT22;18686;53.084;8.872;2024-03-08T04:04:38;0.60;99.90
32187;DHT22;18686;53.084;8.872;2024-03-08T04:07:06;0.60;99.90
32187;DHT22;18686;53.084;8.872;2024-03-08T04:09:35;0.60;99.90
32187;DHT22;18686;53.084;8.872;2024-03-08T04:12:03;0.50;99.90
32187;DHT22;18686;53.084;8.872;2024-03-08T04:14:32;0.50;99.90
32187;DHT22;18686;53.084;8.872;2024-03-08T04:17:02;0.50;99.90
32187;DHT22;18686;53.084;8.872;2024-03-08T04:19:33;0.50;99.90
32187;DHT22;18686;53.084;8.872;2024-03-08T04:22:02;0.50;99.90
32187;DHT22;18686;53.084;8.872;2024-03-08T04:24:30;0.60;99.90
32187;DHT22;18686;53.084;8.872;2024-03-08T04:26:58;0.50;99.90
32187;DHT22;18686;53.084;8.872;2024-03-08T04:29:27;0.50;99.90
32187;DHT22;18686;53.084;8.872;2024-03-08T04:31:55;0.50;99.90
32187;DHT22;18686;53.084;8.872;2024-03-08T04:34:24;0.50;99.90
32187;DHT22;18686;53.084;8.872;2024-03-08T04:36:56;0.50;99.90
32187;DHT22;18686;53.084;8.872;2024-03-08T04:39:25;0.50;99.90
32187;DHT22;18686;53.084;8.872;2024-03-08T04:41:55;0.50;99.90
32187;DHT22;18686;53.084;8.872;2024-03-08T04:44:26;0.40;99.90
32187;DHT22;18686;53.084;8.872;2024-03-08T04:46:54;0.50;99.90
32187;DHT22;18686;53.084;8.872;2024-03-08T04:49:24;0.40;99.90
32187;DHT22;18686;53.084;8.872;2024-03-08T04:51:53;0.40;99.90
32187;DHT22;18686;53.084;8.872;2024-03-08T04:54:21;0.40;99.90
32187;DHT22;18686;53.084;8.872;2024-03-08T04:56:50;0.40;99.90
32187;DHT22;18686;53.084;8.872;2024-03-08T04:59:19;0.40;99.90
32187;DHT22;18686;53.084;8.872;2024-03-08T05:01:47;0.30;99.90
32187;DHT22;18686;53.084;8.872;2024-03-08T05:04:15;0.30;99.90
32187;DHT22;18686;53.084;8.872;2024-03-08T05:06:45;0.30;99.90
32187;DHT22;18686;53.084;8.872;2024-03-08T05:09:13;0.30;99.90
32187;DHT22;18686;53.084;8.872;2024-03-08T05:11:41;0.40;99.90
32187;DHT22;18686;53.084;8.872;2024-03-08T05:14:10;0.40;99.90
32187;DHT22;18686;53.084;8.872;2024-03-08T05:16:39;0.30;99.90
32187;DHT22;18686;53.084;8.872;2024-03-08T05:19:07;0.30;99.90
32187;DHT22;18686;53.084;8.872;2024-03-08T05:21:35;0.30;99.90
32187;DHT22;18686;53.084;8.872;2024-03-08T05:24:05;0.30;99.90
32187;DHT22;18686;53.084;8.872;2024-03-08T05:26:35;0.30;99.90
32187;DHT22;18686;53.084;8.872;2024-03-08T05:29:04;0.30;99.90
32187;DHT22;18686;53.084;8.872;2024-03-08T05:31:38;0.30;99.90
32187;DHT22;18686;53.084;8.872;2024-03-08T05:34:10;0.40;99.90
32187;DHT22;18686;53.084;8.872;2024-03-08T05:36:41;0.40;99.90
32187;DHT22;18686;53.084;8.872;2024-03-08T05:39:13;0.30;99.90
32187;DHT22;18686;53.084;8.872;2024-03-08T05:41:42;0.30;99.90
32187;DHT22;18686;53.084;8.872;2024-03-08T05:44:12;0.30;99.90
32187;DHT22;18686;53.084;8.872;2024-03-08T05:46:40;0.30;99.90
32187;DHT22;18686;53.084;8.872;2024-03-08T05:49:08;0.30;99.90
32187;DHT22;18686;53.084;8.872;2024-03-08T05:51:39;0.40;99.90
32187;DHT22;18686;53.084;8.872;2024-03-08T05:54:09;0.40;99.90
32187;DHT22;18686;53.084;8.872;2024-03-08T05:56:41;0.40;99.90
32187;DHT22;18686;53.084;8.872;2024-03-08T05:59:11;0.40;99.90
32187;DHT22;18686;53.084;8.872;2024-03-08T06:01:40;0.40;99.90
32187;DHT22;18686;53.084;8.872;2024-03-08T06:04:10;0.30;99.90
32187;DHT22;18686;53.084;8.872;2024-03-08T06:06:39;0.40;99.90
32187;DHT22;18686;53.084;8.872;2024-03-08T06:09:08;0.40;99.90
32187;DHT22;18686;53.084;8.872;2024-03-08T06:11:41;0.40;99.90
32187;DHT22;18686;53.084;8.872;2024-03-08T06:14:09;0.40;99.90
32187;DHT22;18686;53.084;8.872;2024-03-08T06:16:38;0.40;99.90
32187;DHT22;18686;53.084;8.872;2024-03-08T06:19:06;0.40;99.90
32187;DHT22;18686;53.084;8.872;2024-03-08T06:21:34;0.40;99.90
32187;DHT22;18686;53.084;8.872;2024-03-08T06:24:03;0.50;99.90
32187;DHT22;18686;53.084;8.872;2024-03-08T06:26:31;0.50;99.90
32187;DHT22;18686;53.084;8.872;2024-03-08T06:29:04;0.50;99.90
32187;DHT22;18686;53.084;8.872;2024-03-08T06:31:34;0.60;99.90
32187;DHT22;18686;53.084;8.872;2024-03-08T06:34:06;0.60;99.90
32187;DHT22;18686;53.084;8.872;2024-03-08T06:36:36;0.70;99.90
32187;DHT22;18686;53.084;8.872;2024-03-08T06:39:08;0.80;99.90
32187;DHT22;18686;53.084;8.872;2024-03-08T06:41:37;0.90;99.90
32187;DHT22;18686;53.084;8.872;2024-03-08T06:44:07;1.00;99.90
32187;DHT22;18686;53.084;8.872;2024-03-08T06:46:36;1.10;99.90
32187;DHT22;18686;53.084;8.872;2024-03-08T06:49:05;1.30;99.90
32187;DHT22;18686;53.084;8.872;2024-03-08T06:51:34;1.40;99.90
32187;DHT22;18686;53.084;8.872;2024-03-08T06:54:02;1.60;99.90
32187;DHT22;18686;53.084;8.872;2024-03-08T06:56:36;1.70;99.90
32187;DHT22;18686;53.084;8.872;2024-03-08T06:59:04;1.90;99.90
32187;DHT22;18686;53.084;8.872;2024-03-08T07:01:34;2.10;99.90
32187;DHT22;18686;53.084;8.872;2024-03-08T07:04:04;2.30;99.90
32187;DHT22;18686;53.084;8.872;2024-03-08T07:06:32;2.40;99.90
32187;DHT22;18686;53.084;8.872;2024-03-08T07:09:01;2.60;99.90
32187;DHT22;18686;53.084;8.872;2024-03-08T07:11:30;2.80;99.90
32187;DHT22;18686;53.084;8.872;2024-03-08T07:13:59;3.00;99.90
32187;DHT22;18686;53.084;8.872;2024-03-08T07:16:30;3.20;99.90
32187;DHT22;18686;53.084;8.872;2024-03-08T07:18:59;3.40;99.90
32187;DHT22;18686;53.084;8.872;2024-03-08T07:21:27;3.60;99.90
32187;DHT22;18686;53.084;8.872;2024-03-08T07:23:56;3.80;99.90
32187;DHT22;18686;53.084;8.872;2024-03-08T07:26:40;4.10;99.90
32187;DHT22;18686;53.084;8.872;2024-03-08T07:29:09;4.30;99.90
32187;DHT22;18686;53.084;8.872;2024-03-08T07:31:37;4.40;99.90
32187;DHT22;18686;53.084;8.872;2024-03-08T07:34:18;4.60;99.90
32187;DHT22;18686;53.084;8.872;2024-03-08T07:36:47;4.80;99.90
32187;DHT22;18686;53.084;8.872;2024-03-08T07:39:17;4.90;99.90
32187;DHT22;18686;53.084;8.872;2024-03-08T07:41:46;5.20;99.90
32187;DHT22;18686;53.084;8.872;2024-03-08T07:44:15;5.40;99.90
32187;DHT22;18686;53.084;8.872;2024-03-08T07:46:43;5.60;99.90
32187;DHT22;18686;53.084;8.872;2024-03-08T07:49:12;5.70;99.90
32187;DHT22;18686;53.084;8.872;2024-03-08T07:51:43;5.80;99.90
32187;DHT22;18686;53.084;8.872;2024-03-08T07:54:11;6.00;99.90
32187;DHT22;18686;53.084;8.872;2024-03-08T07:56:40;6.30;99.90
32187;DHT22;18686;53.084;8.872;2024-03-08T07:59:09;6.30;99.50
32187;DHT22;18686;53.084;8.872;2024-03-08T08:01:38;6.50;99.60
32187;DHT22;18686;53.084;8.872;2024-03-08T08:04:07;6.70;99.20
32187;DHT22;18686;53.084;8.872;2024-03-08T08:06:39;6.90;97.30
32187;DHT22;18686;53.084;8.872;2024-03-08T08:09:09;7.10;94.80
32187;DHT22;18686;53.084;8.872;2024-03-08T08:11:41;7.40;94.40
32187;DHT22;18686;53.084;8.872;2024-03-08T08:14:10;7.60;92.70
32187;DHT22;18686;53.084;8.872;2024-03-08T08:16:38;7.90;90.80
32187;DHT22;18686;53.084;8.872;2024-03-08T08:19:08;8.00;90.00
32187;DHT22;18686;53.084;8.872;2024-03-08T08:21:38;8.30;89.10
32187;DHT22;18686;53.084;8.872;2024-03-08T08:24:08;8.50;86.90
32187;DHT22;18686;53.084;8.872;2024-03-08T08:26:37;8.70;81.60
32187;DHT22;18686;53.084;8.872;2024-03-08T08:29:06;8.90;78.70
32187;DHT22;18686;53.084;8.872;2024-03-08T08:31:35;9.10;78.20
32187;DHT22;18686;53.084;8.872;2024-03-08T08:34:03;9.20;76.80
32187;DHT22;18686;53.084;8.872;2024-03-08T08:36:31;9.40;76.30
32187;DHT22;18686;53.084;8.872;2024-03-08T08:39:00;9.80;74.60
32187;DHT22;18686;53.084;8.872;2024-03-08T08:41:31;9.90;72.00
32187;DHT22;18686;53.084;8.872;2024-03-08T08:44:00;10.20;72.20
32187;DHT22;18686;53.084;8.872;2024-03-08T08:46:41;10.50;68.50
32187;DHT22;18686;53.084;8.872;2024-03-08T08:49:10;10.70;67.00
32187;DHT22;18686;53.084;8.872;2024-03-08T08:51:41;11.10;66.00
32187;DHT22;18686;53.084;8.872;2024-03-08T08:54:09;11.40;62.30
32187;DHT22;18686;53.084;8.872;2024-03-08T08:56:44;11.70;61.90
32187;DHT22;18686;53.084;8.872;2024-03-08T08:59:12;12.10;61.90
32187;DHT22;18686;53.084;8.872;2024-03-08T09:01:41;12.20;58.00
32187;DHT22;18686;53.084;8.872;2024-03-08T09:04:09;12.40;57.00
32187;DHT22;18686;53.084;8.872;2024-03-08T09:06:39;12.60;57.40
32187;DHT22;18686;53.084;8.872;2024-03-08T09:09:09;12.70;55.90
32187;DHT22;18686;53.084;8.872;2024-03-08T09:11:37;13.00;55.20
32187;DHT22;18686;53.084;8.872;2024-03-08T09:14:10;13.30;53.60
32187;DHT22;18686;53.084;8.872;2024-03-08T09:16:39;13.50;52.20
32187;DHT22;18686;53.084;8.872;2024-03-08T09:19:07;13.80;51.90
32187;DHT22;18686;53.084;8.872;2024-03-08T09:21:38;13.90;52.10
32187;DHT22;18686;53.084;8.872;2024-03-08T09:24:07;13.70;51.50
32187;DHT22;18686;53.084;8.872;2024-03-08T09:26:36;13.90;52.30
32187;DHT22;18686;53.084;8.872;2024-03-08T09:29:05;14.30;50.40
32187;DHT22;18686;53.084;8.872;2024-03-08T09:31:35;14.70;49.50
32187;DHT22;18686;53.084;8.872;2024-03-08T09:34:05;15.20;48.10
32187;DHT22;18686;53.084;8.872;2024-03-08T09:36:37;15.40;46.50
32187;DHT22;18686;53.084;8.872;2024-03-08T09:39:08;15.30;46.90
32187;DHT22;18686;53.084;8.872;2024-03-08T09:41:36;15.40;47.20
32187;DHT22;18686;53.084;8.872;2024-03-08T09:44:06;15.60;45.90
32187;DHT22;18686;53.084;8.872;2024-03-08T09:46:36;15.90;45.40
32187;DHT22;18686;53.084;8.872;2024-03-08T09:49:04;16.00;44.10
32187;DHT22;18686;53.084;8.872;2024-03-08T09:51:34;16.20;43.70
32187;DHT22;18686;53.084;8.872;2024-03-08T09:54:03;16.50;43.40
32187;DHT22;18686;53.084;8.872;2024-03-08T09:56:43;16.40;41.60
32187;DHT22;18686;53.084;8.872;2024-03-08T09:59:12;16.10;42.40
32187;DHT22;18686;53.084;8.872;2024-03-08T10:02:14;16.00;42.80
32187;DHT22;18686;53.084;8.872;2024-03-08T10:04:43;15.80;43.40
32187;DHT22;18686;53.084;8.872;2024-03-08T10:07:14;15.60;44.50
32187;DHT22;18686;53.084;8.872;2024-03-08T10:09:42;15.60;42.60
32187;DHT22;18686;53.084;8.872;2024-03-08T10:12:16;15.50;42.60
32187;DHT22;18686;53.084;8.872;2024-03-08T10:14:46;15.30;42.40
32187;DHT22;18686;53.084;8.872;2024-03-08T10:17:16;15.50;43.30
32187;DHT22;18686;53.084;8.872;2024-03-08T10:19:50;16.20;43.70
32187;DHT22;18686;53.084;8.872;2024-03-08T10:22:19;17.20;41.50
32187;DHT22;18686;53.084;8.872;2024-03-08T10:24:47;18.20;39.80
32187;DHT22;18686;53.084;8.872;2024-03-08T10:27:16;19.50;38.60
32187;DHT22;18686;53.084;8.872;2024-03-08T10:29:47;20.80;37.10
32187;DHT22;18686;53.084;8.872;2024-03-08T10:32:18;22.00;35.50
32187;DHT22;18686;53.084;8.872;2024-03-08T10:34:47;22.50;32.40
32187;DHT22;18686;53.084;8.872;2024-03-08T10:37:21;23.30;32.50
32187;DHT22;18686;53.084;8.872;2024-03-08T10:40:05;23.00;31.50
32187;DHT22;18686;53.084;8.872;2024-03-08T10:42:41;23.60;30.50
32187;DHT22;18686;53.084;8.872;2024-03-08T10:45:23;24.30;30.90
32187;DHT22;18686;53.084;8.872;2024-03-08T10:48:08;24.90;30.60
32187;DHT22;18686;53.084;8.872;2024-03-08T10:50:38;25.10;30.50
32187;DHT22;18686;53.084;8.872;2024-03-08T10:53:06;25.30;30.10
32187;DHT22;18686;53.084;8.872;2024-03-08T10:55:37;24.70;29.20
32187;DHT22;18686;53.084;8.872;2024-03-08T10:58:07;24.20;29.20
32187;DHT22;18686;53.084;8.872;2024-03-08T11:00:36;23.90;30.00
32187;DHT22;18686;53.084;8.872;2024-03-08T11:03:06;25.00;30.20
32187;DHT22;18686;53.084;8.872;2024-03-08T11:05:38;25.90;29.30
32187;DHT22;18686;53.084;8.872;2024-03-08T11:08:17;26.90;28.90
32187;DHT22;18686;53.084;8.872;2024-03-08T11:10:49;27.80;28.10
32187;DHT22;18686;53.084;8.872;2024-03-08T11:13:36;28.00;27.20
32187;DHT22;18686;53.084;8.872;2024-03-08T11:16:07;28.20;28.40
32187;DHT22;18686;53.084;8.872;2024-03-08T11:18:38;28.20;27.10
32187;DHT22;18686;53.084;8.872;2024-03-08T11:21:08;28.40;27.10
32187;DHT22;18686;53.084;8.872;2024-03-08T11:23:40;28.80;26.70
32187;DHT22;18686;53.084;8.872;2024-03-08T11:26:18;29.20;26.50
32187;DHT22;18686;53.084;8.872;2024-03-08T11:28:46;29.70;27.10
32187;DHT22;18686;53.084;8.872;2024-03-08T11:31:25;30.00;26.50
32187;DHT22;18686;53.084;8.872;2024-03-08T11:33:55;30.80;26.10
32187;DHT22;18686;53.084;8.872;2024-03-08T11:36:25;29.90;25.20
32187;DHT22;18686;53.084;8.872;2024-03-08T11:38:53;29.10;25.60
32187;DHT22;18686;53.084;8.872;2024-03-08T11:41:24;28.60;25.90
32187;DHT22;18686;53.084;8.872;2024-03-08T11:44:02;28.70;26.00
32187;DHT22;18686;53.084;8.872;2024-03-08T11:46:33;27.80;25.40
32187;DHT22;18686;53.084;8.872;2024-03-08T11:49:03;27.70;26.20
32187;DHT22;18686;53.084;8.872;2024-03-08T11:51:33;27.90;25.80
32187;DHT22;18686;53.084;8.872;2024-03-08T11:54:01;27.90;25.90
32187;DHT22;18686;53.084;8.872;2024-03-08T11:56:30;28.10;26.20
32187;DHT22;18686;53.084;8.872;2024-03-08T11:58:59;28.60;25.40
32187;DHT22;18686;53.084;8.872;2024-03-08T12:01:29;29.00;25.80
32187;DHT22;18686;53.084;8.872;2024-03-08T12:03:59;29.60;25.70
32187;DHT22;18686;53.084;8.872;2024-03-08T12:06:36;30.50;25.70
32187;DHT22;18686;53.084;8.872;2024-03-08T12:09:08;31.20;25.60
32187;DHT22;18686;53.084;8.872;2024-03-08T12:11:37;32.30;25.30
32187;DHT22;18686;53.084;8.872;2024-03-08T12:14:06;32.60;24.10
32187;DHT22;18686;53.084;8.872;2024-03-08T12:16:36;32.50;24.50
32187;DHT22;18686;53.084;8.872;2024-03-08T12:19:05;31.40;23.50
32187;DHT22;18686;53.084;8.872;2024-03-08T12:21:36;31.60;24.60
32187;DHT22;18686;53.084;8.872;2024-03-08T12:24:05;32.10;24.40
32187;DHT22;18686;53.084;8.872;2024-03-08T12:26:36;32.30;23.80
32187;DHT22;18686;53.084;8.872;2024-03-08T12:29:18;32.40;24.10
32187;DHT22;18686;53.084;8.872;2024-03-08T12:31:52;32.40;23.70
32187;DHT22;18686;53.084;8.872;2024-03-08T12:34:21;33.00;24.00
32187;DHT22;18686;53.084;8.872;2024-03-08T12:36:52;33.10;23.70
32187;DHT22;18686;53.084;8.872;2024-03-08T12:39:22;33.40;24.00
32187;DHT22;18686;53.084;8.872;2024-03-08T12:41:54;33.30;23.40
32187;DHT22;18686;53.084;8.872;2024-03-08T12:44:24;32.60;23.30
32187;DHT22;18686;53.084;8.872;2024-03-08T12:46:53;31.80;23.80
32187;DHT22;18686;53.084;8.872;2024-03-08T12:49:21;30.70;24.00
32187;DHT22;18686;53.084;8.872;2024-03-08T12:51:51;31.00;23.80
32187;DHT22;18686;53.084;8.872;2024-03-08T12:54:20;31.40;24.00
32187;DHT22;18686;53.084;8.872;2024-03-08T12:56:52;30.60;23.70
32187;DHT22;18686;53.084;8.872;2024-03-08T12:59:22;30.20;24.00
32187;DHT22;18686;53.084;8.872;2024-03-08T13:01:51;29.10;24.40
32187;DHT22;18686;53.084;8.872;2024-03-08T13:04:21;28.60;24.80
32187;DHT22;18686;53.084;8.872;2024-03-08T13:06:51;28.10;24.50
32187;DHT22;18686;53.084;8.872;2024-03-08T13:09:21;28.50;25.20
32187;DHT22;18686;53.084;8.872;2024-03-08T13:11:50;29.40;25.30
32187;DHT22;18686;53.084;8.872;2024-03-08T13:14:20;29.70;24.80
32187;DHT22;18686;53.084;8.872;2024-03-08T13:16:49;29.90;24.60
32187;DHT22;18686;53.084;8.872;2024-03-08T13:19:18;29.80;25.00
32187;DHT22;18686;53.084;8.872;2024-03-08T13:21:50;29.70;24.70
32187;DHT22;18686;53.084;8.872;2024-03-08T13:24:18;29.50;24.40
32187;DHT22;18686;53.084;8.872;2024-03-08T13:26:47;29.60;24.80
32187;DHT22;18686;53.084;8.872;2024-03-08T13:29:17;29.70;24.80
32187;DHT22;18686;53.084;8.872;2024-03-08T13:31:46;29.30;24.50
32187;DHT22;18686;53.084;8.872;2024-03-08T13:34:18;29.30;25.20
32187;DHT22;18686;53.084;8.872;2024-03-08T13:36:56;29.50;25.40
32187;DHT22;18686;53.084;8.872;2024-03-08T13:39:28;30.10;24.90
32187;DHT22;18686;53.084;8.872;2024-03-08T13:41:58;30.40;24.90
32187;DHT22;18686;53.084;8.872;2024-03-08T13:44:26;30.30;24.60
32187;DHT22;18686;53.084;8.872;2024-03-08T13:46:55;30.30;24.50
32187;DHT22;18686;53.084;8.872;2024-03-08T13:49:25;30.60;24.70
32187;DHT22;18686;53.084;8.872;2024-03-08T13:51:53;31.00;24.30
32187;DHT22;18686;53.084;8.872;2024-03-08T13:54:23;31.30;24.40
32187;DHT22;18686;53.084;8.872;2024-03-08T13:56:52;31.10;23.80
32187;DHT22;18686;53.084;8.872;2024-03-08T13:59:20;30.40;24.10
32187;DHT22;18686;53.084;8.872;2024-03-08T14:01:50;29.90;24.30
32187;DHT22;18686;53.084;8.872;2024-03-08T14:04:19;29.50;24.70
32187;DHT22;18686;53.084;8.872;2024-03-08T14:06:48;29.30;25.00
32187;DHT22;18686;53.084;8.872;2024-03-08T14:09:18;29.30;25.00
32187;DHT22;18686;53.084;8.872;2024-03-08T14:11:48;29.30;25.00
32187;DHT22;18686;53.084;8.872;2024-03-08T14:14:16;28.90;25.10
32187;DHT22;18686;53.084;8.872;2024-03-08T14:16:44;29.00;25.20
32187;DHT22;18686;53.084;8.872;2024-03-08T14:19:12;28.40;25.10
32187;DHT22;18686;53.084;8.872;2024-03-08T14:21:42;27.00;25.90
32187;DHT22;18686;53.084;8.872;2024-03-08T14:24:10;25.50;26.80
32187;DHT22;18686;53.084;8.872;2024-03-08T14:26:38;24.00;27.90
32187;DHT22;18686;53.084;8.872;2024-03-08T14:29:07;22.10;28.90
32187;DHT22;18686;53.084;8.872;2024-03-08T14:31:37;20.40;30.60
32187;DHT22;18686;53.084;8.872;2024-03-08T14:34:05;18.90;32.90
32187;DHT22;18686;53.084;8.872;2024-03-08T14:36:34;17.70;34.40
32187;DHT22;18686;53.084;8.872;2024-03-08T14:39:02;16.80;35.90
32187;DHT22;18686;53.084;8.872;2024-03-08T14:41:31;16.10;37.00
32187;DHT22;18686;53.084;8.872;2024-03-08T14:43:59;15.60;38.70
32187;DHT22;18686;53.084;8.872;2024-03-08T14:46:28;15.00;39.20
32187;DHT22;18686;53.084;8.872;2024-03-08T14:48:57;14.50;40.10
32187;DHT22;18686;53.084;8.872;2024-03-08T14:51:25;14.10;41.30
32187;DHT22;18686;53.084;8.872;2024-03-08T14:53:54;13.80;41.50
32187;DHT22;18686;53.084;8.872;2024-03-08T14:56:22;13.60;42.60
32187;DHT22;18686;53.084;8.872;2024-03-08T14:58:54;13.30;42.70
32187;DHT22;18686;53.084;8.872;2024-03-08T15:01:26;13.00;43.40
32187;DHT22;18686;53.084;8.872;2024-03-08T15:03:58;12.70;44.10
32187;DHT22;18686;53.084;8.872;2024-03-08T15:06:31;12.40;44.60
32187;DHT22;18686;53.084;8.872;2024-03-08T15:09:00;12.20;45.70
32187;DHT22;18686;53.084;8.872;2024-03-08T15:11:28;12.10;45.70
32187;DHT22;18686;53.084;8.872;2024-03-08T15:13:56;11.90;46.10
32187;DHT22;18686;53.084;8.872;2024-03-08T15:16:25;11.80;47.10
32187;DHT22;18686;53.084;8.872;2024-03-08T15:18:53;11.60;47.40
32187;DHT22;18686;53.084;8.872;2024-03-08T15:21:23;11.50;47.90
32187;DHT22;18686;53.084;8.872;2024-03-08T15:23:53;11.50;48.40
32187;DHT22;18686;53.084;8.872;2024-03-08T15:26:21;11.30;48.60
32187;DHT22;18686;53.084;8.872;2024-03-08T15:28:49;11.10;48.30
32187;DHT22;18686;53.084;8.872;2024-03-08T15:31:19;11.10;49.20
32187;DHT22;18686;53.084;8.872;2024-03-08T15:33:48;10.90;48.90
32187;DHT22;18686;53.084;8.872;2024-03-08T15:36:19;10.70;49.80
32187;DHT22;18686;53.084;8.872;2024-03-08T15:38:49;10.60;50.60
32187;DHT22;18686;53.084;8.872;2024-03-08T15:41:19;10.50;50.10
32187;DHT22;18686;53.084;8.872;2024-03-08T15:43:48;10.40;50.60
32187;DHT22;18686;53.084;8.872;2024-03-08T15:46:17;10.30;51.50
32187;DHT22;18686;53.084;8.872;2024-03-08T15:48:49;10.20;51.10
32187;DHT22;18686;53.084;8.872;2024-03-08T15:51:19;10.20;52.10
32187;DHT22;18686;53.084;8.872;2024-03-08T15:53:48;10.10;52.00
32187;DHT22;18686;53.084;8.872;2024-03-08T15:56:22;10.10;52.10